Mc Entire JNGB Airport
KMMT : now visible

Airfield :











YOU CAN JOIN US ON...

 
LOGIN :

Register | Disclaimer

   EN    FR    IT 

 









Legend :    VFR   Marginal VFR   IFR   Intensive IFR   Very Intensive IFR
Visi :
Ceiling :
>= 8 km
>= 3000ft
5 to 8 km
1000 to 3000 ft
1500m to 5 km
500 to 1000 ft
800 to 1500m
200 to 500 ft
< 800m
< 200 ft
Symbols :   Thunderstorms  Fog  Heavy snow  Heavy precipitations  Wind > 20 kt






- Airport Elevation : 254 ft


KMMT - Mc Entire JNGB

CURRENT METAR :
  • 060356Z 03003KT 10SM BKN130 OVC220 09/M06 A3013 RMK AO2A SLP206 T00891057 $

EXPIRED METARs :
  • 060256Z 00000KT 10SM BKN150 OVC220 09/M07 A3013 RMK AO2A SLP206 T00931066 52018 $
  • 060156Z 05004KT 10SM SCT150 OVC220 10/M07 A3010 RMK AO2A SLP196 T01031070 $

TAF TAF KMMT
Valid from the 06 at 00:00 until the 07 at 06:00 UTC


060000Z 0600/0706 03006KT 9999 SCT220 QNH3006INS
BECMG 0605/0606 04009KT 9999 BKN080 OVC220 620809 QNH3020INS
BECMG 0614/0615 04010G15KT 9999 BKN100 OVC220 QNH3028INS
BECMG 0617/0618 03006KT 9999 BKN100 QNH3028INS
BECMG 0623/0700 VRB06KT 9999 SKC QNH3019INS TX14/0621Z TN01/0612Z
KZJX FIR / North America



MET'MAP, your aeronautical weather chart ! - Copyright ORBIFLY December 2007 - Disclaimer

ORBIFLY MET'MAP TEAM :

Programming & Development : Alexandra Zaïnal
Concept & original design : Baudouin d'Aumeries
Assistance for programming : Marc-Olivier Méhu
Technical & hardware support : Manuel Goepfert

Contact : metmap@orbifly.com




SOURCES & CREDITS :

   NOAA       Earth
Advisory